LJMB/MBX METAR and TAF weather

Enter ICAO airport designator
Station Type Date Time Source
LJMB METAR 2019/06/26 16:30 UTC NOAA

LJMB 261630Z 17008KT CAVOK 31/19 Q1022


Station Type Date Time Source
LJMB Decoded METAR 2019/06/26 16:30 UTC NOAA

Maribor / Slivnica, Slovenia (LJMB) 46-29N 015-41E 265M
Jun 26, 2019 - 12:30 PM EDT / 2019.06.26 1630 UTC
Wind: from the S (170 degrees) at 9 MPH (8 KT):0
Visibility: greater than 7 mile(s):0
Temperature: 87 F (31 C)
Dew Point: 66 F (19 C)
Relative Humidity: 48%
Pressure (altimeter): 30.18 in. Hg (1022 hPa)
ob: LJMB 261630Z 17008KT CAVOK 31/19 Q1022
cycle: 16

Station Type Date Time Source
LJMB TAF 2019/06/26 15:07 UTC NOAA

TAF LJMB 261400Z 2615/2715 17005KT CAVOK
BECMG 2616/2618 VRB02KT
BECMG 2707/2709 16005KT FEW050
TEMPO 2712/2715 6000 TSRA SCT050CB BKN060

Example: see airport list